Archival Weather

Václav Havel Intl Apt

Prague, Czechia (LKPR)

Report from: Friday, May 26, 2023 7:30 AM CEST
Current time: Friday, July 19, 2024 5:13 AM CEST

Current weather – Weather history – Daily summaries
Weather forecast

Temperature12.0°C (53.6°F)
Dew point8.0°C (46.4°F)
Winds 9 kts (4.6 m/s, 10.4 mph) North-Northwest (340°)
Clouds Sky clear
Altimeter30.24 in.Hg (1024 mB)
Relative humidity77 %
Density altitude-566 ft. (-173 m)
Remarks Ceiling and visibility OK
No significant changes expected in the next two hours
Flight conditions Visual Meteorological Conditions
Raw dataLKPR 260530Z 34009KT CAVOK 12/08 Q1024 NOSIG
An error has occurred. This application may no longer respond until reloaded. Reload 🗙